Time;durP1;ratioP1;P1;durP2;ratioP2;P2;SDS_P1;SDS_P2;PMS_P1;PMS_P2;Temp;Humidity;BMP_temperature;BMP_pressure;BME280_temperature;BME280_humidity;BME280_pressure;Samples;Min_cycle;Max_cycle;Signal;HPM_P1;HPM_P2
2021/05/21 00:01:37;;;;;;;4.03;2.05;;;;;;;10.52;100.00;97586.03;5046259;28;20050;-81
2021/05/21 00:04:04;;;;;;;4.03;2.13;;;;;;;10.55;100.00;97584.59;5045749;28;20041;-80
2021/05/21 00:06:31;;;;;;;2.50;1.77;;;;;;;10.66;100.00;97587.81;5049465;28;20056;-79
2021/05/21 00:09:00;;;;;;;3.05;1.83;;;;;;;10.63;100.00;97584.59;5046046;28;20051;-80
2021/05/21 00:11:27;;;;;;;2.92;2.08;;;;;;;10.67;100.00;97573.13;5037767;28;20057;-81
2021/05/21 00:13:53;;;;;;;3.78;1.80;;;;;;;10.67;100.00;97583.97;5036298;28;20060;-81
2021/05/21 00:16:20;;;;;;;3.67;1.90;;;;;;;10.64;100.00;97580.78;5041033;28;20291;-80
2021/05/21 00:18:48;;;;;;;5.82;1.90;;;;;;;10.66;100.00;97579.69;5042481;28;20045;-80
2021/05/21 00:21:16;;;;;;;4.05;1.83;;;;;;;10.64;100.00;97585.41;5029360;28;20393;-80
2021/05/21 00:23:43;;;;;;;2.15;1.63;;;;;;;10.58;100.00;97581.25;5045621;28;20045;-81
2021/05/21 00:26:09;;;;;;;3.25;1.85;;;;;;;10.56;100.00;97573.44;5041389;28;20045;-80
2021/05/21 00:28:36;;;;;;;2.95;2.30;;;;;;;10.49;100.00;97566.91;5025194;28;20617;-81
2021/05/21 00:31:03;;;;;;;6.03;2.10;;;;;;;10.46;100.00;97565.63;5029389;28;20076;-81
2021/05/21 00:33:30;;;;;;;4.55;2.00;;;;;;;10.42;100.00;97558.47;5032716;28;20049;-81
2021/05/21 00:36:00;;;;;;;2.28;1.60;;;;;;;10.36;100.00;97540.75;5034855;28;20140;-81
2021/05/21 00:38:27;;;;;;;3.40;2.10;;;;;;;10.35;100.00;97560.84;5043703;28;20068;-80
2021/05/21 00:40:53;;;;;;;4.00;1.75;;;;;;;10.35;100.00;97548.09;5043968;28;20133;-79
2021/05/21 00:43:20;;;;;;;4.35;1.95;;;;;;;10.40;100.00;97550.63;5043053;28;20045;-79
2021/05/21 00:45:46;;;;;;;3.88;1.90;;;;;;;10.38;100.00;97535.81;5044523;28;20045;-80
2021/05/21 00:48:13;;;;;;;4.40;2.30;;;;;;;10.36;100.00;97543.47;5027143;28;20041;-80
2021/05/21 00:50:39;;;;;;;4.32;2.08;;;;;;;10.46;100.00;97532.34;5039807;28;20057;-80
2021/05/21 00:53:07;;;;;;;3.53;2.28;;;;;;;10.46;100.00;97522.31;5041337;28;20055;-79
2021/05/21 00:55:33;;;;;;;3.22;2.08;;;;;;;10.50;100.00;97519.78;5042165;28;20056;-80
2021/05/21 00:58:01;;;;;;;3.22;2.10;;;;;;;10.50;100.00;97519.78;5041927;28;20041;-79
2021/05/21 01:00:28;;;;;;;3.75;2.15;;;;;;;10.56;100.00;97504.97;5044188;28;20049;-79
2021/05/21 01:02:57;;;;;;;3.45;2.05;;;;;;;10.52;100.00;97490.50;5053412;28;20239;-80
2021/05/21 01:05:24;;;;;;;2.70;2.00;;;;;;;10.54;100.00;97489.06;5037371;28;20084;-79
2021/05/21 01:07:50;;;;;;;2.83;2.25;;;;;;;10.55;100.00;97501.50;5024250;28;20050;-79
2021/05/21 01:10:18;;;;;;;2.50;2.20;;;;;;;10.53;100.00;97498.28;5026381;28;20275;-79
2021/05/21 01:12:45;;;;;;;2.72;2.00;;;;;;;10.55;100.00;97489.88;5042385;28;20049;-80
2021/05/21 01:15:13;;;;;;;2.90;2.50;;;;;;;10.50;100.00;97493.50;5046480;28;20048;-79
2021/05/21 01:17:39;;;;;;;6.13;2.05;;;;;;;10.47;100.00;97487.94;5045670;28;20049;-79
2021/05/21 01:20:15;;;;;;;3.13;2.50;;;;;;;10.44;100.00;97485.88;5051956;28;20044;-79
2021/05/21 01:22:43;;;;;;;3.15;2.30;;;;;;;10.49;100.00;97493.81;5037623;28;20048;-80
2021/05/21 01:25:11;;;;;;;4.55;2.97;;;;;;;10.51;100.00;97483.47;5051468;28;20060;-80
2021/05/21 01:27:42;;;;;;;4.25;2.80;;;;;;;10.53;100.00;97473.91;5034772;28;20079;-80
2021/05/21 01:30:11;;;;;;;3.58;2.40;;;;;;;10.51;100.00;97483.47;5049867;28;20045;-80
2021/05/21 01:33:06;;;;;;;4.05;2.40;;;;;;;10.48;100.00;97462.44;5031656;28;20055;-81
2021/05/21 01:35:50;;;;;;;;;;;;;;;;;;;;;
2021/05/21 01:38:21;;;;;;;3.25;2.40;;;;;;;10.47;100.00;97464.38;5062826;28;20048;-80
2021/05/21 01:40:50;;;;;;;5.13;2.20;;;;;;;10.44;100.00;97458.81;5046432;28;20101;-80
2021/05/21 01:43:24;;;;;;;6.07;2.55;;;;;;;10.46;100.00;97461.97;5044457;28;20124;-80
2021/05/21 01:45:52;;;;;;;3.45;2.00;;;;;;;10.47;100.00;97466.28;5063770;28;20040;-80
2021/05/21 01:48:26;;;;;;;3.30;2.42;;;;;;;10.47;100.00;97453.56;5046658;28;20314;-80
2021/05/21 01:51:04;;;;;;;4.88;2.20;;;;;;;10.39;100.00;97446.22;5046580;28;20049;-80
2021/05/21 01:53:38;;;;;;;3.60;2.25;;;;;;;10.38;100.00;97436.50;5039550;28;20064;-81
2021/05/21 01:56:07;;;;;;;3.22;2.20;;;;;;;10.39;100.00;97432.69;5037635;28;20103;-81
2021/05/21 01:58:45;;;;;;;2.63;2.00;;;;;;;10.41;100.00;97427.75;5037620;28;20051;-81
2021/05/21 02:01:16;;;;;;;5.00;2.50;;;;;;;10.35;100.00;97433.66;5042566;28;20051;-80
2021/05/21 02:03:43;;;;;;;4.25;2.22;;;;;;;10.35;100.00;97437.13;5027603;28;20088;-81
2021/05/21 02:06:09;;;;;;;5.75;2.25;;;;;;;10.31;100.00;97440.81;5062820;28;20120;-81
2021/05/21 02:08:36;;;;;;;4.57;2.17;;;;;;;10.25;100.00;97442.06;5038562;28;20120;-81
2021/05/21 02:11:03;;;;;;;5.15;2.25;;;;;;;10.17;100.00;97443.66;5038757;28;20037;-81
2021/05/21 02:13:29;;;;;;;4.50;2.40;;;;;;;10.10;100.00;97431.69;5037085;28;20041;-81
2021/05/21 02:15:58;;;;;;;5.05;2.40;;;;;;;10.09;100.00;97425.47;5055857;28;20045;-80
2021/05/21 02:18:25;;;;;;;5.80;2.60;;;;;;;10.10;100.00;97427.06;5038393;28;20045;-80
2021/05/21 02:20:54;;;;;;;2.97;2.40;;;;;;;10.16;100.00;97435.88;5055912;28;20639;-81
2021/05/21 02:23:20;;;;;;;4.15;2.60;;;;;;;10.16;100.00;97425.03;5059407;28;20052;-80
2021/05/21 02:25:47;;;;;;;5.28;2.50;;;;;;;10.24;100.00;97424.25;5039792;28;20443;-80
2021/05/21 02:28:14;;;;;;;6.07;2.47;;;;;;;10.29;100.00;97405.97;5057413;28;20369;-81
2021/05/21 02:30:40;;;;;;;3.88;2.50;;;;;;;10.34;100.00;97403.09;5038542;28;20503;-81
2021/05/21 02:33:07;;;;;;;3.30;2.30;;;;;;;10.39;100.00;97404.84;5021485;28;20504;-81
2021/05/21 02:35:33;;;;;;;5.47;2.55;;;;;;;10.34;100.00;97400.41;5037584;28;20041;-81
2021/05/21 02:38:00;;;;;;;3.17;2.20;;;;;;;10.36;100.00;97402.78;5056147;28;20299;-82
2021/05/21 02:40:26;;;;;;;5.95;2.20;;;;;;;10.30;100.00;97395.91;5038530;28;20041;-80
2021/05/21 02:42:54;;;;;;;3.00;2.20;;;;;;;10.22;100.00;97400.22;5038361;28;20052;-82
2021/05/21 02:45:21;;;;;;;7.07;2.17;;;;;;;10.14;100.00;97376.69;5039910;28;20052;-80
2021/05/21 02:47:48;;;;;;;3.25;2.35;;;;;;;10.19;100.00;97400.06;5067792;28;20427;-81
2021/05/21 02:50:14;;;;;;;2.78;2.30;;;;;;;10.12;100.00;97380.78;5053755;28;20041;-80
2021/05/21 02:52:41;;;;;;;4.22;2.63;;;;;;;10.11;100.00;97390.00;5021064;28;20045;-80
2021/05/21 02:55:12;;;;;;;5.35;2.38;;;;;;;10.04;100.00;97399.38;5055558;28;20542;-81
2021/05/21 02:57:39;;;;;;;5.43;2.90;;;;;;;9.92;100.00;97380.28;5055304;28;20041;-80
2021/05/21 03:00:06;;;;;;;6.95;3.42;;;;;;;9.86;100.00;97378.84;5037208;28;20049;-80
2021/05/21 03:02:40;;;;;;;6.22;2.95;;;;;;;9.76;100.00;97367.53;5060276;28;20040;-80
2021/05/21 03:05:07;;;;;;;4.82;2.75;;;;;;;9.70;100.00;97366.09;5058058;28;20049;-80
2021/05/21 03:07:33;;;;;;;5.88;2.90;;;;;;;9.57;100.00;97364.34;5056651;28;20059;-80
2021/05/21 03:10:01;;;;;;;5.40;3.28;;;;;;;9.48;100.00;97377.00;5036243;28;20048;-80
2021/05/21 03:12:28;;;;;;;5.18;3.30;;;;;;;9.44;100.00;97362.53;5041314;28;20119;-80
2021/05/21 03:14:55;;;;;;;7.40;3.33;;;;;;;9.38;100.00;97356.47;5044470;28;20433;-80
2021/05/21 03:17:22;;;;;;;5.93;3.70;;;;;;;9.40;100.00;97362.38;5048246;28;20520;-80
2021/05/21 03:19:49;;;;;;;4.97;3.78;;;;;;;9.37;100.00;97360.28;5030955;28;20116;-81
2021/05/21 03:22:15;;;;;;;9.57;3.72;;;;;;;9.33;100.00;97352.03;5056889;28;20051;-81
2021/05/21 03:25:01;;;;;;;6.93;4.07;;;;;;;9.37;100.00;97349.47;5025581;28;20064;-80
2021/05/21 03:27:33;;;;;;;8.10;3.67;;;;;;;9.40;100.00;97348.84;5060360;28;20231;-81
2021/05/21 03:30:10;;;;;;;6.93;3.42;;;;;;;9.50;100.00;97350.50;5061256;28;20044;-80
2021/05/21 03:32:37;;;;;;;5.65;3.83;;;;;;;9.51;100.00;97341.25;5045010;28;20028;-80
2021/05/21 03:35:06;;;;;;;8.68;3.50;;;;;;;9.49;100.00;97333.47;5038647;28;20079;-81
2021/05/21 03:37:33;;;;;;;6.43;3.38;;;;;;;9.57;100.00;97331.91;5074402;28;20044;-80
2021/05/21 03:40:00;;;;;;;4.03;3.15;;;;;;;9.55;100.00;97331.44;5053511;28;20070;-80
2021/05/21 03:42:27;;;;;;;6.95;3.20;;;;;;;9.56;100.00;97333.00;5071970;28;20106;-80
2021/05/21 03:44:54;;;;;;;8.07;2.75;;;;;;;9.60;100.00;97321.25;5085006;28;20055;-80
2021/05/21 03:47:23;;;;;;;11.38;3.50;;;;;;;9.70;100.00;97328.28;5051853;28;20043;-80
2021/05/21 03:49:50;;;;;;;8.65;3.15;;;;;;;9.72;100.00;97320.63;5051112;28;20063;-80
2021/05/21 03:52:19;;;;;;;3.92;2.90;;;;;;;9.79;100.00;97321.75;5069062;28;20055;-82
2021/05/21 03:54:51;;;;;;;6.10;2.80;;;;;;;9.87;100.00;97323.66;5075406;28;20048;-81
2021/05/21 03:57:35;;;;;;;5.30;2.85;;;;;;;9.88;100.00;97322.53;5055036;28;20152;-80
2021/05/21 04:00:21;;;;;;;5.80;2.50;;;;;;;9.94;100.00;97326.69;5072446;28;20041;-81
2021/05/21 04:02:51;;;;;;;2.70;2.00;;;;;;;9.92;100.00;97312.69;5063433;28;20048;-80
2021/05/21 04:05:20;;;;;;;2.72;1.90;;;;;;;10.00;100.00;97303.78;5055538;28;20049;-80
2021/05/21 04:07:47;;;;;;;6.15;2.10;;;;;;;10.12;100.00;97305.88;5074085;28;20075;-79
2021/05/21 04:10:14;;;;;;;3.60;2.13;;;;;;;10.14;100.00;97300.16;5078030;28;20529;-80
2021/05/21 04:12:43;;;;;;;3.65;2.30;;;;;;;10.09;100.00;97295.66;5053058;28;20071;-79
2021/05/21 04:15:11;;;;;;;6.07;2.00;;;;;;;10.10;100.00;97285.63;5056811;28;20515;-80
2021/05/21 04:17:38;;;;;;;2.35;1.75;;;;;;;10.13;100.00;97280.41;5051442;28;20048;-81
2021/05/21 04:20:08;;;;;;;4.70;1.98;;;;;;;10.14;100.00;97284.72;5070981;28;20041;-80
2021/05/21 04:22:34;;;;;;;3.38;2.05;;;;;;;10.12;100.00;97278.00;5072189;28;20059;-79
2021/05/21 04:25:02;;;;;;;3.63;1.67;;;;;;;10.17;100.00;97286.00;5072352;28;20052;-78
2021/05/21 04:27:29;;;;;;;7.78;2.58;;;;;;;10.14;100.00;97273.09;5077313;28;20131;-79
2021/05/21 04:29:55;;;;;;;3.30;2.30;;;;;;;10.16;100.00;97271.66;5069863;28;20045;-80
2021/05/21 04:32:22;;;;;;;3.25;2.20;;;;;;;10.14;100.00;97265.78;5053209;28;20052;-79
2021/05/21 04:34:49;;;;;;;4.88;2.20;;;;;;;10.28;100.00;97266.38;5070011;28;20036;-79
2021/05/21 04:37:18;;;;;;;3.55;2.15;;;;;;;10.30;100.00;97266.84;5054106;28;20484;-82
2021/05/21 04:39:45;;;;;;;3.42;2.20;;;;;;;10.37;100.00;97269.09;5051618;28;20392;-79
2021/05/21 04:42:14;;;;;;;4.57;2.35;;;;;;;10.34;100.00;97264.31;5071128;28;20052;-80
2021/05/21 04:44:43;;;;;;;5.22;2.10;;;;;;;10.43;100.00;97259.66;5049813;28;20044;-79
2021/05/21 04:47:12;;;;;;;5.03;2.13;;;;;;;10.50;100.00;97252.63;5054842;28;20136;-80
2021/05/21 04:49:39;;;;;;;8.57;2.40;;;;;;;10.55;100.00;97255.19;5073069;28;20102;-82
2021/05/21 04:52:09;;;;;;;6.13;2.10;;;;;;;10.64;100.00;97247.81;5071554;28;20102;-79
2021/05/21 04:54:37;;;;;;;5.13;2.40;;;;;;;10.66;100.00;97235.88;5047989;28;20037;-81
2021/05/21 04:57:05;;;;;;;4.15;2.60;;;;;;;10.67;100.00;97227.41;5067461;28;20049;-78
2021/05/21 04:59:40;;;;;;;5.78;2.20;;;;;;;10.75;100.00;97232.00;5069787;28;20052;-80
2021/05/21 05:02:07;;;;;;;4.53;1.90;;;;;;;10.83;100.00;97219.56;5053237;28;20456;-81
2021/05/21 05:04:34;;;;;;;2.60;1.63;;;;;;;10.97;100.00;97212.00;5054599;28;20045;-82
2021/05/21 05:07:00;;;;;;;1.92;1.30;;;;;;;11.13;100.00;97215.72;5033598;28;20045;-80
2021/05/21 05:09:27;;;;;;;5.22;1.33;;;;;;;11.37;100.00;97225.91;5052257;28;20044;-81
2021/05/21 05:11:55;;;;;;;2.10;1.13;;;;;;;11.43;100.00;97213.78;5052392;28;20044;-82
2021/05/21 05:14:22;;;;;;;1.95;0.95;;;;;;;11.59;100.00;97218.25;5030730;28;20148;-80
2021/05/21 05:16:51;;;;;;;3.05;1.13;;;;;;;11.62;100.00;97219.50;5047505;28;20045;-80
2021/05/21 05:19:19;;;;;;;1.30;0.80;;;;;;;11.82;100.00;97221.44;5072949;28;20052;-82
2021/05/21 05:21:45;;;;;;;2.55;0.85;;;;;;;11.87;100.00;97215.81;5051998;28;20049;-81
2021/05/21 05:24:17;;;;;;;3.72;1.27;;;;;;;12.07;100.00;97214.19;5045291;28;20055;-79
2021/05/21 05:26:47;;;;;;;2.95;1.10;;;;;;;12.15;100.00;97207.88;5064848;28;20051;-81
2021/05/21 05:29:14;;;;;;;2.67;1.05;;;;;;;12.28;100.00;97201.38;5047571;28;20423;-81
2021/05/21 05:31:46;;;;;;;1.67;1.13;;;;;;;12.34;100.00;97203.50;5053623;28;20094;-82
2021/05/21 05:34:14;;;;;;;2.95;1.02;;;;;;;12.55;100.00;97192.56;5070140;28;20057;-82
2021/05/21 05:36:44;;;;;;;1.48;0.88;;;;;;;12.66;100.00;97187.50;5044378;28;20053;-81
2021/05/21 05:39:11;;;;;;;3.15;1.02;;;;;;;12.63;100.00;97180.03;5051549;28;20049;-81
2021/05/21 05:41:47;;;;;;;3.35;1.10;;;;;;;12.49;100.00;97164.09;5063652;28;20049;-82
2021/05/21 05:44:14;;;;;;;3.72;1.27;;;;;;;12.76;100.00;97174.25;5070000;28;20056;-81
2021/05/21 05:46:43;;;;;;;5.45;1.20;;;;;;;12.80;100.00;97187.97;5071814;28;20127;-82
2021/05/21 05:49:13;;;;;;;1.73;1.00;;;;;;;12.87;100.00;97155.59;5047839;28;20166;-82
2021/05/21 05:51:40;;;;;;;1.60;1.00;;;;;;;13.01;100.00;97173.09;5075840;28;20044;-81
2021/05/21 05:54:07;;;;;;;1.77;0.80;;;;;;;13.08;100.00;97176.06;5057386;28;20110;-81
2021/05/21 05:56:34;;;;;;;4.70;1.13;;;;;;;13.32;100.00;97182.59;5074748;28;20416;-81
2021/05/21 05:59:00;;;;;;;3.33;1.20;;;;;;;13.34;100.00;97183.06;5075263;28;20044;-81
2021/05/21 06:01:27;;;;;;;1.40;1.00;;;;;;;13.28;100.00;97184.41;5076902;28;20657;-82
2021/05/21 06:03:53;;;;;;;1.92;1.00;;;;;;;13.48;100.00;97186.19;5060989;28;20052;-82
2021/05/21 06:06:20;;;;;;;1.40;0.85;;;;;;;13.50;100.00;97183.91;5076449;28;20066;-81
2021/05/21 06:08:58;;;;;;;3.38;1.00;;;;;;;13.40;100.00;97185.19;5054913;28;20491;-81
2021/05/21 06:11:25;;;;;;;5.07;0.95;;;;;;;13.73;100.00;97165.91;5074864;28;20478;-82
2021/05/21 06:13:52;;;;;;;2.38;0.95;;;;;;;13.83;100.00;97178.25;5053738;28;20041;-81
2021/05/21 06:16:19;;;;;;;2.47;0.80;;;;;;;13.70;100.00;97161.97;5073185;28;20048;-81
2021/05/21 06:18:47;;;;;;;1.02;0.90;;;;;;;13.92;100.00;97165.28;5053426;28;20045;-82
2021/05/21 06:21:15;;;;;;;3.28;1.27;;;;;;;13.92;100.00;97157.13;5057117;28;20502;-82
2021/05/21 06:23:44;;;;;;;3.40;0.95;;;;;;;14.08;100.00;97155.22;5055891;28;20120;-81
2021/05/21 06:28:52;;;;;;;2.47;0.85;;;;;;;14.40;100.00;97143.22;5074071;28;20048;-80
2021/05/21 06:31:19;;;;;;;1.88;0.82;;;;;;;14.59;100.00;97147.97;5073904;28;20044;-81
2021/05/21 06:33:45;;;;;;;1.95;0.93;;;;;;;14.58;100.00;97140.97;5052734;28;20048;-81
2021/05/21 06:36:12;;;;;;;1.85;0.90;;;;;;;14.70;100.00;97149.03;5054574;28;20055;-82
2021/05/21 06:38:42;;;;;;;3.30;0.90;;;;;;;14.85;100.00;97154.47;5066695;28;20298;-82
2021/05/21 06:41:09;;;;;;;1.48;0.90;;;;;;;14.69;100.00;97156.41;5082889;28;20120;-82
2021/05/21 06:43:36;;;;;;;2.47;0.70;;;;;;;14.76;100.00;97147.63;5053576;28;20053;-81
2021/05/21 06:46:06;;;;;;;2.15;1.00;;;;;;;14.90;100.00;97148.75;5054852;28;20087;-82
2021/05/21 06:48:36;;;;;;;1.70;0.80;;;;;;;14.85;100.00;97135.41;5048056;28;20056;-84
2021/05/21 06:51:07;;;;;;;2.95;1.02;;;;;;;14.98;100.00;97134.13;5069671;28;20055;-82
2021/05/21 06:53:34;;;;;;;1.88;0.77;;;;;;;15.20;100.00;97135.38;5047095;28;20061;-81
2021/05/21 06:56:02;;;;;;;2.22;0.98;;;;;;;15.17;100.00;97121.69;5053632;28;20045;-81
2021/05/21 06:58:29;;;;;;;1.98;1.00;;;;;;;15.22;100.00;97126.88;5046011;28;20573;-82
2021/05/21 07:00:58;;;;;;;2.97;1.20;;;;;;;15.40;100.00;97122.56;5034205;28;20064;-81
2021/05/21 07:03:28;;;;;;;2.33;0.90;;;;;;;15.42;100.00;97112.88;5053701;28;20052;-81
2021/05/21 07:05:56;;;;;;;2.13;0.82;;;;;;;15.35;100.00;97103.78;5050443;28;20105;-82
2021/05/21 07:08:22;;;;;;;3.22;0.80;;;;;;;15.51;100.00;97105.28;5053557;28;20059;-83
2021/05/21 07:10:49;;;;;;;0.93;0.65;;;;;;;15.58;100.00;97104.66;5053550;28;20049;-81
2021/05/21 07:13:18;;;;;;;1.48;0.60;;;;;;;15.70;100.00;97092.78;5052967;28;20045;-81
2021/05/21 07:15:45;;;;;;;4.60;1.30;;;;;;;15.72;100.00;97091.28;5053472;28;20091;-80
2021/05/21 07:18:12;;;;;;;1.17;0.50;;;;;;;15.66;100.00;97091.94;5051809;28;20459;-80
2021/05/21 07:20:42;;;;;;;1.77;0.70;;;;;;;15.72;100.00;97102.19;5030705;28;20500;-80
2021/05/21 07:23:09;;;;;;;1.17;0.47;;;;;;;15.83;100.00;97103.19;5034820;28;20516;-81
2021/05/21 07:25:35;;;;;;;2.13;0.70;;;;;;;15.89;100.00;97088.09;5052268;28;20547;-79
2021/05/21 07:28:02;;;;;;;2.83;0.60;;;;;;;16.01;100.00;97087.13;5066377;28;20056;-80
2021/05/21 07:30:29;;;;;;;1.88;0.77;;;;;;;16.21;100.00;97092.16;5052864;28;20065;-80
2021/05/21 07:32:56;;;;;;;5.28;0.85;;;;;;;16.34;100.00;97097.44;5048900;28;20045;-78
2021/05/21 07:35:24;;;;;;;3.25;0.70;;;;;;;15.94;100.00;97093.25;5058939;28;20056;-81
2021/05/21 07:37:51;;;;;;;1.08;0.75;;;;;;;15.82;100.00;97089.91;5053806;28;20045;-84
2021/05/21 07:40:19;;;;;;;2.65;1.20;;;;;;;16.02;100.00;97084.06;5027775;28;20063;-81
2021/05/21 07:42:46;;;;;;;1.90;0.90;;;;;;;16.35;100.00;97074.44;5053322;28;20374;-79
2021/05/21 07:45:16;;;;;;;3.60;1.20;;;;;;;16.50;100.00;97073.50;5029949;28;20053;-80
2021/05/21 07:47:43;;;;;;;2.88;0.70;;;;;;;16.49;100.00;97074.69;5053374;28;20136;-81
2021/05/21 07:50:11;;;;;;;3.42;0.70;;;;;;;16.63;100.00;97061.25;5053050;28;20107;-80
2021/05/21 07:52:37;;;;;;;3.20;0.88;;;;;;;16.83;100.00;97059.22;5068856;22;20037;-74
2021/05/21 07:55:05;;;;;;;1.98;0.60;;;;;;;16.97;100.00;97056.66;5078386;28;20396;-77
2021/05/21 07:57:33;;;;;;;2.30;0.60;;;;;;;17.01;100.00;97052.81;5095781;28;20101;-77
2021/05/21 08:00:00;;;;;;;1.90;0.50;;;;;;;17.04;100.00;97038.41;5028124;28;20095;-76
2021/05/21 08:02:27;;;;;;;3.10;0.70;;;;;;;17.33;100.00;97050.50;5096351;28;20595;-76
2021/05/21 08:04:54;;;;;;;1.23;0.65;;;;;;;17.36;100.00;97047.81;5028538;28;20400;-73
2021/05/21 08:07:20;;;;;;;1.17;0.70;;;;;;;17.45;100.00;97039.28;5029084;28;20052;-76
2021/05/21 08:09:50;;;;;;;2.65;0.60;;;;;;;17.62;100.00;97038.75;5080433;28;20118;-76
2021/05/21 08:12:17;;;;;;;4.55;1.00;;;;;;;17.66;96.41;97028.63;5096761;28;20034;-77
2021/05/21 08:14:44;;;;;;;2.53;1.35;;;;;;;17.57;100.00;97024.59;5012280;28;20046;-76
2021/05/21 08:17:11;;;;;;;2.45;0.70;;;;;;;18.01;87.69;97009.00;5102414;27;20056;-77
2021/05/21 08:19:43;;;;;;;1.88;1.00;;;;;;;17.96;83.71;97015.59;5058672;28;20395;-75
2021/05/21 08:22:10;;;;;;;3.13;0.80;;;;;;;17.90;86.16;97006.19;5019205;28;20209;-76
2021/05/21 08:24:36;;;;;;;1.25;0.65;;;;;;;17.62;84.56;97010.59;5074256;28;20068;-75
2021/05/21 08:27:03;;;;;;;2.55;0.90;;;;;;;17.58;81.61;97004.28;5008623;28;20103;-76
2021/05/21 08:29:30;;;;;;;3.83;0.60;;;;;;;17.47;70.45;97006.09;5008090;28;20042;-75
2021/05/21 08:32:01;;;;;;;2.58;0.70;;;;;;;17.56;76.77;96996.44;5008015;28;20038;-77
2021/05/21 08:34:28;;;;;;;1.33;0.57;;;;;;;17.34;76.51;97003.59;5020342;28;20481;-75
2021/05/21 08:36:55;;;;;;;2.10;0.60;;;;;;;17.83;76.61;97005.31;5028849;28;20045;-77
2021/05/21 08:39:22;;;;;;;1.67;0.70;;;;;;;17.73;71.31;97017.72;5009460;28;20480;-75
2021/05/21 08:41:52;;;;;;;2.80;0.70;;;;;;;17.95;73.40;96994.09;5007032;28;20038;-77
2021/05/21 08:44:21;;;;;;;5.15;0.70;;;;;;;17.85;73.22;97006.53;5080295;28;20056;-75
2021/05/21 08:46:47;;;;;;;2.97;0.60;;;;;;;17.79;73.39;96999.81;5097690;28;20049;-78
2021/05/21 08:49:16;;;;;;;1.52;0.60;;;;;;;17.77;74.05;97015.03;5010426;28;20723;-74
2021/05/21 08:51:42;;;;;;;2.33;0.65;;;;;;;18.10;70.88;97005.94;5018930;28;20054;-75
2021/05/21 08:54:34;;;;;;;2.50;0.65;;;;;;;18.09;63.46;97012.59;5027472;28;20085;-77
2021/05/21 08:57:08;;;;;;;5.18;0.73;;;;;;;18.22;67.30;97000.19;5095631;28;20056;-76
2021/05/21 08:59:35;;;;;;;1.67;0.60;;;;;;;17.91;64.20;97005.00;5027132;28;20302;-74
2021/05/21 09:02:03;;;;;;;6.70;0.60;;;;;;;17.66;60.18;96992.22;5027028;28;20423;-77
2021/05/21 09:04:53;;;;;;;2.40;0.55;;;;;;;17.50;62.97;96997.91;5026954;28;20485;-77
2021/05/21 09:07:46;;;;;;;1.95;0.50;;;;;;;17.79;68.96;96991.59;5095782;28;20042;-77
2021/05/21 09:10:18;;;;;;;4.53;0.60;;;;;;;18.26;60.41;97000.97;5030065;28;20063;-74
2021/05/21 09:12:51;;;;;;;3.38;0.65;;;;;;;18.40;61.75;97001.09;5113523;28;20506;-77
2021/05/21 09:15:19;;;;;;;4.38;0.80;;;;;;;17.89;61.18;96982.69;5094156;28;20496;-76
2021/05/21 09:17:59;;;;;;;7.25;0.65;;;;;;;18.45;59.43;96992.53;5029024;28;20052;-76
2021/05/21 09:20:31;;;;;;;1.85;0.57;;;;;;;18.63;66.92;96994.22;5095451;28;20057;-77
2021/05/21 09:23:17;;;;;;;3.58;0.70;;;;;;;17.94;62.99;96974.13;5029451;28;20116;-76
2021/05/21 09:25:49;;;;;;;1.58;0.50;;;;;;;17.54;61.75;96970.63;5030552;28;20412;-77
2021/05/21 09:28:37;;;;;;;2.38;0.60;;;;;;;17.77;68.36;96987.66;5100685;28;20132;-75
2021/05/21 09:31:21;;;;;;;2.92;0.55;;;;;;;18.24;67.94;96982.19;5100316;28;20247;-75
2021/05/21 09:33:51;;;;;;;4.43;0.68;;;;;;;18.26;62.70;96985.34;5105289;28;20041;-77
2021/05/21 09:36:29;;;;;;;2.40;0.70;;;;;;;17.82;64.28;96981.84;5031267;28;20042;-75
2021/05/21 09:38:58;;;;;;;2.33;0.43;;;;;;;17.89;68.02;96977.19;5100235;28;20124;-76
2021/05/21 09:41:51;;;;;;;1.45;0.60;;;;;;;17.96;74.89;96982.72;5030744;28;20148;-76
2021/05/21 09:44:18;;;;;;;3.28;0.60;;;;;;;18.04;70.20;96975.34;5031032;28;20045;-76
2021/05/21 09:46:49;;;;;;;2.47;0.60;;;;;;;18.38;73.21;96976.78;5100963;28;20437;-76
2021/05/21 09:49:37;;;;;;;1.75;0.50;;;;;;;18.63;66.66;96961.31;5028169;28;20050;-77
2021/05/21 09:52:07;;;;;;;3.78;0.73;;;;;;;17.96;71.49;96954.59;5115713;27;20090;-77
2021/05/21 09:54:54;;;;;;;2.78;0.60;;;;;;;17.95;65.60;96953.00;5025724;28;20041;-76
2021/05/21 09:57:31;;;;;;;2.95;0.70;;;;;;;17.68;70.21;96938.69;5030790;28;20393;-76
2021/05/21 09:59:57;;;;;;;1.80;0.80;;;;;;;17.91;68.59;96943.97;5100156;28;20102;-77
2021/05/21 10:02:28;;;;;;;3.60;0.63;;;;;;;18.43;70.72;96945.50;5031454;28;20424;-77
2021/05/21 10:04:58;;;;;;;3.72;0.80;;;;;;;18.62;68.81;96948.78;5098415;28;20401;-77
2021/05/21 10:07:25;;;;;;;3.33;0.60;;;;;;;19.02;62.49;96947.78;5031290;28;20045;-78
2021/05/21 10:09:52;;;;;;;5.47;0.60;;;;;;;19.04;65.13;96941.94;5028520;28;20034;-76
2021/05/21 10:12:19;;;;;;;3.05;0.60;;;;;;;19.19;63.62;96938.84;5022688;28;20049;-79
2021/05/21 10:14:51;;;;;;;2.05;0.80;;;;;;;19.27;65.10;96934.94;5018484;28;20038;-78
2021/05/21 10:17:25;;;;;;;1.30;0.65;;;;;;;19.68;60.56;96935.44;5078874;28;20512;-78
2021/05/21 10:19:54;;;;;;;3.92;0.65;;;;;;;19.52;58.71;96939.72;5083959;28;20559;-75
2021/05/21 10:22:39;;;;;;;4.72;0.63;;;;;;;20.26;60.91;96918.56;5030096;28;20041;-78
2021/05/21 10:25:19;;;;;;;2.55;0.60;;;;;;;20.07;58.43;96927.22;5024234;28;20053;-78
2021/05/21 10:27:52;;;;;;;2.25;0.60;;;;;;;19.85;60.05;96926.41;5083333;27;20046;-75
2021/05/21 10:30:26;;;;;;;3.33;0.85;;;;;;;19.60;60.75;96917.38;5074888;28;20046;-76
2021/05/21 10:33:13;;;;;;;3.47;0.65;;;;;;;19.65;60.34;96921.69;5087229;28;20420;-77
2021/05/21 10:35:40;;;;;;;2.13;0.73;;;;;;;19.69;63.28;96912.28;5004687;28;20050;-75
2021/05/21 10:38:18;;;;;;;1.75;0.63;;;;;;;19.92;61.49;96907.19;5071466;28;20543;-77
2021/05/21 10:41:14;;;;;;;2.83;0.60;;;;;;;20.06;69.55;96903.63;5027675;28;20058;-77
2021/05/21 10:43:51;;;;;;;2.60;0.68;;;;;;;19.75;71.50;96904.44;5021352;27;20034;-76
2021/05/21 10:46:21;;;;;;;5.43;0.80;;;;;;;20.37;76.70;96891.84;5074964;28;20054;-75
2021/05/21 10:49:05;;;;;;;5.40;0.85;;;;;;;20.27;63.07;96891.88;5078327;28;20107;-77
2021/05/21 10:51:54;;;;;;;4.13;0.63;;;;;;;20.38;68.07;96889.88;5007314;28;20063;-75
2021/05/21 10:54:26;;;;;;;2.92;0.70;;;;;;;19.92;75.34;96880.91;5006810;28;20064;-77
2021/05/21 10:56:57;;;;;;;4.95;0.80;;;;;;;19.78;68.82;96882.47;5022015;28;20042;-77
2021/05/21 10:59:52;;;;;;;2.50;0.60;;;;;;;19.13;68.23;96901.19;5011771;28;20045;-77
2021/05/21 11:02:21;;;;;;;4.90;0.80;;;;;;;18.90;71.42;96896.03;5095171;28;20042;-75
2021/05/21 11:04:54;;;;;;;2.75;0.82;;;;;;;18.95;67.88;96878.41;5101346;28;20045;-76
2021/05/21 11:07:31;;;;;;;3.00;0.68;;;;;;;19.16;69.31;96875.72;5115015;28;20038;-77
2021/05/21 11:09:58;;;;;;;2.13;0.80;;;;;;;18.25;69.42;96868.66;5038723;28;20045;-76
2021/05/21 11:12:42;;;;;;;3.22;0.93;;;;;;;18.49;74.60;96884.50;5099626;28;20046;-75
2021/05/21 11:15:39;;;;;;;3.55;1.10;;;;;;;18.35;73.38;96878.91;5098580;28;20042;-76
2021/05/21 11:18:11;;;;;;;4.70;0.90;;;;;;;18.47;71.57;96891.53;5079794;28;20106;-77
2021/05/21 11:20:55;;;;;;;4.80;1.42;;;;;;;18.07;68.85;96872.50;5021630;28;20075;-76
2021/05/21 11:24:01;;;;;;;4.80;0.95;;;;;;;17.84;67.93;96869.97;5084161;28;20080;-76
2021/05/21 11:26:29;;;;;;;8.05;0.70;;;;;;;17.72;68.21;96864.81;5015451;28;20046;-76
2021/05/21 11:28:59;;;;;;;4.78;0.85;;;;;;;18.08;64.93;96858.41;5082977;28;20052;-77
2021/05/21 11:31:33;;;;;;;5.82;0.75;;;;;;;17.87;63.27;96850.84;5013044;28;20603;-77
2021/05/21 11:34:03;;;;;;;3.60;0.90;;;;;;;17.87;70.11;96842.63;5021085;28;20065;-76
2021/05/21 11:36:33;;;;;;;5.78;0.82;;;;;;;18.03;67.13;96828.63;5095889;28;20550;-76
2021/05/21 11:39:02;;;;;;;9.07;0.85;;;;;;;18.17;64.84;96834.19;5094439;28;20082;-75
2021/05/21 11:41:33;;;;;;;10.20;0.82;;;;;;;18.63;64.16;96828.94;5097661;28;20038;-76
2021/05/21 11:44:08;;;;;;;3.22;0.65;;;;;;;19.03;65.01;96816.91;5113082;27;20064;-78
2021/05/21 11:46:37;;;;;;;3.92;0.60;;;;;;;19.84;64.31;96815.00;5097210;28;20381;-76